sensor_id;sensor_type;location;lat;lon;timestamp;pressure;altitude;pressure_sealevel;temperature;humidity
67517;BME280;54359;59.124;37.910;2023-02-23T00:01:26;99805.38;;;-12.50;70.82
67517;BME280;54359;59.124;37.910;2023-02-23T00:03:54;99803.47;;;-12.52;71.02
67517;BME280;54359;59.124;37.910;2023-02-23T00:06:21;99803.63;;;-12.51;71.09
67517;BME280;54359;59.124;37.910;2023-02-23T00:08:47;99813.81;;;-12.48;71.25
67517;BME280;54359;59.124;37.910;2023-02-23T00:11:14;99796.34;;;-12.49;71.25
67517;BME280;54359;59.124;37.910;2023-02-23T00:13:41;99790.38;;;-12.51;71.46
67517;BME280;54359;59.124;37.910;2023-02-23T00:16:16;99801.75;;;-12.45;71.28
67517;BME280;54359;59.124;37.910;2023-02-23T00:18:50;99800.44;;;-12.41;71.41
67517;BME280;54359;59.124;37.910;2023-02-23T00:23:49;99795.63;;;-12.40;71.40
67517;BME280;54359;59.124;37.910;2023-02-23T00:26:16;99795.47;;;-12.41;71.34
67517;BME280;54359;59.124;37.910;2023-02-23T00:28:47;99799.72;;;-12.40;70.82
67517;BME280;54359;59.124;37.910;2023-02-23T00:31:13;99805.53;;;-12.40;71.22
67517;BME280;54359;59.124;37.910;2023-02-23T00:33:39;99801.03;;;-12.44;71.35
67517;BME280;54359;59.124;37.910;2023-02-23T00:36:12;99789.91;;;-12.56;71.52
67517;BME280;54359;59.124;37.910;2023-02-23T00:38:40;99797.50;;;-12.54;71.05
67517;BME280;54359;59.124;37.910;2023-02-23T00:41:08;99797.78;;;-12.51;71.18
67517;BME280;54359;59.124;37.910;2023-02-23T00:43:36;99803.75;;;-12.49;71.33
67517;BME280;54359;59.124;37.910;2023-02-23T00:46:04;99796.06;;;-12.44;71.36
67517;BME280;54359;59.124;37.910;2023-02-23T00:48:32;99784.84;;;-12.49;71.42
67517;BME280;54359;59.124;37.910;2023-02-23T00:50:59;99794.34;;;-12.45;71.50
67517;BME280;54359;59.124;37.910;2023-02-23T00:53:25;99803.66;;;-12.42;71.36
67517;BME280;54359;59.124;37.910;2023-02-23T00:55:52;99804.53;;;-12.42;71.70
67517;BME280;54359;59.124;37.910;2023-02-23T00:58:18;99805.38;;;-12.41;71.10
67517;BME280;54359;59.124;37.910;2023-02-23T01:00:44;99815.44;;;-12.40;71.08
67517;BME280;54359;59.124;37.910;2023-02-23T01:03:10;99814.88;;;-12.37;71.48
67517;BME280;54359;59.124;37.910;2023-02-23T01:05:35;99818.25;;;-12.37;71.74
67517;BME280;54359;59.124;37.910;2023-02-23T01:08:01;99822.16;;;-12.39;71.37
67517;BME280;54359;59.124;37.910;2023-02-23T01:10:27;99804.50;;;-12.50;71.19
67517;BME280;54359;59.124;37.910;2023-02-23T01:12:53;99814.13;;;-12.45;71.35
67517;BME280;54359;59.124;37.910;2023-02-23T01:15:20;99817.59;;;-12.51;71.22
67517;BME280;54359;59.124;37.910;2023-02-23T01:17:46;99819.03;;;-12.53;71.42
67517;BME280;54359;59.124;37.910;2023-02-23T01:20:13;99818.75;;;-12.57;71.38
67517;BME280;54359;59.124;37.910;2023-02-23T01:22:45;99812.34;;;-12.63;71.37
67517;BME280;54359;59.124;37.910;2023-02-23T01:25:12;99817.25;;;-12.72;71.14
67517;BME280;54359;59.124;37.910;2023-02-23T01:27:39;99826.59;;;-12.69;70.77
67517;BME280;54359;59.124;37.910;2023-02-23T01:30:09;99824.66;;;-12.72;71.25
67517;BME280;54359;59.124;37.910;2023-02-23T01:32:36;99831.53;;;-12.69;71.77
67517;BME280;54359;59.124;37.910;2023-02-23T01:35:10;99827.13;;;-12.72;71.04
67517;BME280;54359;59.124;37.910;2023-02-23T01:37:40;99829.91;;;-12.78;71.30
67517;BME280;54359;59.124;37.910;2023-02-23T01:40:14;99813.44;;;-12.86;71.22
67517;BME280;54359;59.124;37.910;2023-02-23T01:42:44;99824.63;;;-12.81;71.74
67517;BME280;54359;59.124;37.910;2023-02-23T01:47:47;99822.47;;;-12.78;71.42
67517;BME280;54359;59.124;37.910;2023-02-23T01:50:14;99813.00;;;-12.82;71.64
67517;BME280;54359;59.124;37.910;2023-02-23T01:52:44;99828.88;;;-12.80;71.60
67517;BME280;54359;59.124;37.910;2023-02-23T01:55:12;99828.41;;;-12.84;71.58
67517;BME280;54359;59.124;37.910;2023-02-23T01:57:40;99820.25;;;-12.92;71.58
67517;BME280;54359;59.124;37.910;2023-02-23T02:00:07;99800.38;;;-13.01;71.70
67517;BME280;54359;59.124;37.910;2023-02-23T02:02:38;99814.81;;;-12.97;71.70
67517;BME280;54359;59.124;37.910;2023-02-23T02:05:04;99820.09;;;-12.93;71.33
67517;BME280;54359;59.124;37.910;2023-02-23T02:07:39;99813.25;;;-12.96;71.09
67517;BME280;54359;59.124;37.910;2023-02-23T02:10:08;99822.41;;;-12.95;71.76
67517;BME280;54359;59.124;37.910;2023-02-23T02:12:42;99824.88;;;-12.95;71.80
67517;BME280;54359;59.124;37.910;2023-02-23T02:15:09;99820.91;;;-13.02;71.54
67517;BME280;54359;59.124;37.910;2023-02-23T02:18:10;99833.69;;;-13.06;71.73
67517;BME280;54359;59.124;37.910;2023-02-23T02:24:16;99829.13;;;-13.19;71.29
67517;BME280;54359;59.124;37.910;2023-02-23T02:35:01;99838.31;;;-13.42;70.67
67517;BME280;54359;59.124;37.910;2023-02-23T02:46:32;99833.41;;;-13.33;71.12
67517;BME280;54359;59.124;37.910;2023-02-23T02:49:13;99820.78;;;-13.28;71.75
67517;BME280;54359;59.124;37.910;2023-02-23T02:51:47;99835.25;;;-13.15;71.60
67517;BME280;54359;59.124;37.910;2023-02-23T02:56:53;99823.81;;;-13.06;71.79
67517;BME280;54359;59.124;37.910;2023-02-23T02:59:23;99822.97;;;-12.98;72.07
67517;BME280;54359;59.124;37.910;2023-02-23T03:02:19;99819.75;;;-12.97;72.22
67517;BME280;54359;59.124;37.910;2023-02-23T03:05:16;99830.44;;;-12.89;71.28
67517;BME280;54359;59.124;37.910;2023-02-23T03:11:14;99838.00;;;-12.87;71.57
67517;BME280;54359;59.124;37.910;2023-02-23T03:14:25;99841.34;;;-12.87;72.05
67517;BME280;54359;59.124;37.910;2023-02-23T03:23:10;99840.78;;;-12.84;71.92
67517;BME280;54359;59.124;37.910;2023-02-23T03:26:34;99840.94;;;-12.83;71.83
67517;BME280;54359;59.124;37.910;2023-02-23T03:29:54;99803.69;;;-13.09;72.41
67517;BME280;54359;59.124;37.910;2023-02-23T03:32:50;99829.72;;;-12.88;71.86
67517;BME280;54359;59.124;37.910;2023-02-23T03:38:52;99826.34;;;-12.88;72.16
67517;BME280;54359;59.124;37.910;2023-02-23T03:41:44;99827.38;;;-12.86;71.87
67517;BME280;54359;59.124;37.910;2023-02-23T03:44:34;99826.50;;;-12.87;72.10
67517;BME280;54359;59.124;37.910;2023-02-23T03:47:23;99832.66;;;-12.74;72.39
67517;BME280;54359;59.124;37.910;2023-02-23T03:50:17;99833.69;;;-12.72;71.77
67517;BME280;54359;59.124;37.910;2023-02-23T03:53:06;99839.09;;;-12.68;72.68
67517;BME280;54359;59.124;37.910;2023-02-23T03:55:54;99845.22;;;-12.64;72.26
67517;BME280;54359;59.124;37.910;2023-02-23T03:58:50;99842.50;;;-12.59;71.96
67517;BME280;54359;59.124;37.910;2023-02-23T04:01:37;99843.69;;;-12.55;72.35
67517;BME280;54359;59.124;37.910;2023-02-23T04:04:24;99835.34;;;-12.56;72.22
67517;BME280;54359;59.124;37.910;2023-02-23T04:07:13;99843.38;;;-12.49;72.20
67517;BME280;54359;59.124;37.910;2023-02-23T04:10:00;99833.63;;;-12.57;71.68
67517;BME280;54359;59.124;37.910;2023-02-23T04:15:36;99843.09;;;-12.52;72.07
67517;BME280;54359;59.124;37.910;2023-02-23T04:18:08;99837.28;;;-12.53;72.09
67517;BME280;54359;59.124;37.910;2023-02-23T04:20:36;99832.88;;;-12.56;72.95
67517;BME280;54359;59.124;37.910;2023-02-23T04:23:02;99832.75;;;-12.57;72.66
67517;BME280;54359;59.124;37.910;2023-02-23T04:25:29;99840.91;;;-12.49;72.08
67517;BME280;54359;59.124;37.910;2023-02-23T04:27:54;99838.75;;;-12.46;71.92
67517;BME280;54359;59.124;37.910;2023-02-23T04:30:21;99817.16;;;-12.56;71.95
67517;BME280;54359;59.124;37.910;2023-02-23T04:32:51;99841.94;;;-12.47;71.62
67517;BME280;54359;59.124;37.910;2023-02-23T04:35:17;99832.75;;;-12.57;71.99
67517;BME280;54359;59.124;37.910;2023-02-23T04:37:43;99839.84;;;-12.60;71.53
67517;BME280;54359;59.124;37.910;2023-02-23T04:40:09;99845.91;;;-12.74;71.68
67517;BME280;54359;59.124;37.910;2023-02-23T04:42:37;99847.31;;;-12.85;71.17
67517;BME280;54359;59.124;37.910;2023-02-23T04:45:03;99841.31;;;-12.96;71.26
67517;BME280;54359;59.124;37.910;2023-02-23T04:47:30;99840.72;;;-13.02;71.49
67517;BME280;54359;59.124;37.910;2023-02-23T04:49:55;99831.81;;;-13.08;72.02
67517;BME280;54359;59.124;37.910;2023-02-23T04:52:21;99835.97;;;-13.16;71.28
67517;BME280;54359;59.124;37.910;2023-02-23T04:54:47;99825.22;;;-13.17;71.33
67517;BME280;54359;59.124;37.910;2023-02-23T04:57:13;99827.06;;;-13.23;71.28
67517;BME280;54359;59.124;37.910;2023-02-23T04:59:39;99842.66;;;-13.15;71.00
67517;BME280;54359;59.124;37.910;2023-02-23T05:02:05;99844.84;;;-13.18;70.94
67517;BME280;54359;59.124;37.910;2023-02-23T05:04:31;99853.25;;;-13.25;71.65
67517;BME280;54359;59.124;37.910;2023-02-23T05:07:00;99845.22;;;-13.31;71.65
67517;BME280;54359;59.124;37.910;2023-02-23T05:09:26;99836.00;;;-13.41;72.12
67517;BME280;54359;59.124;37.910;2023-02-23T05:11:53;99846.94;;;-13.39;71.99
67517;BME280;54359;59.124;37.910;2023-02-23T05:14:18;99842.63;;;-13.48;70.87
67517;BME280;54359;59.124;37.910;2023-02-23T05:16:44;99854.13;;;-13.49;70.88
67517;BME280;54359;59.124;37.910;2023-02-23T05:19:10;99848.84;;;-13.52;71.85
67517;BME280;54359;59.124;37.910;2023-02-23T05:21:36;99845.50;;;-13.52;71.86
67517;BME280;54359;59.124;37.910;2023-02-23T05:24:04;99849.88;;;-13.50;72.22
67517;BME280;54359;59.124;37.910;2023-02-23T05:26:30;99849.19;;;-13.49;72.01
67517;BME280;54359;59.124;37.910;2023-02-23T05:28:56;99842.63;;;-13.48;71.70
67517;BME280;54359;59.124;37.910;2023-02-23T05:31:23;99838.31;;;-13.42;71.45
67517;BME280;54359;59.124;37.910;2023-02-23T05:33:50;99847.53;;;-13.32;71.94
67517;BME280;54359;59.124;37.910;2023-02-23T05:36:17;99836.91;;;-13.31;71.51
67517;BME280;54359;59.124;37.910;2023-02-23T05:38:45;99830.66;;;-13.28;72.15
67517;BME280;54359;59.124;37.910;2023-02-23T05:41:13;99831.13;;;-13.23;71.45
67517;BME280;54359;59.124;37.910;2023-02-23T05:43:39;99831.66;;;-13.10;71.62
67517;BME280;54359;59.124;37.910;2023-02-23T05:46:10;99840.44;;;-12.96;71.95
67517;BME280;54359;59.124;37.910;2023-02-23T05:48:36;99819.31;;;-13.01;71.66
67517;BME280;54359;59.124;37.910;2023-02-23T05:51:08;99836.84;;;-12.82;71.89
67517;BME280;54359;59.124;37.910;2023-02-23T05:53:35;99840.84;;;-12.76;71.57
67517;BME280;54359;59.124;37.910;2023-02-23T05:56:02;99830.63;;;-12.79;71.87
67517;BME280;54359;59.124;37.910;2023-02-23T05:58:29;99846.94;;;-12.72;71.63
67517;BME280;54359;59.124;37.910;2023-02-23T06:00:55;99826.25;;;-12.81;71.78
67517;BME280;54359;59.124;37.910;2023-02-23T06:03:21;99833.53;;;-12.74;71.52
67517;BME280;54359;59.124;37.910;2023-02-23T06:05:55;99835.75;;;-12.68;70.98
67517;BME280;54359;59.124;37.910;2023-02-23T06:08:24;99828.22;;;-12.61;71.32
67517;BME280;54359;59.124;37.910;2023-02-23T06:10:52;99832.59;;;-12.59;71.88
67517;BME280;54359;59.124;37.910;2023-02-23T06:13:18;99839.88;;;-12.51;71.35
67517;BME280;54359;59.124;37.910;2023-02-23T06:15:45;99821.22;;;-12.65;71.38
67517;BME280;54359;59.124;37.910;2023-02-23T06:18:11;99833.47;;;-12.58;71.13
67517;BME280;54359;59.124;37.910;2023-02-23T06:20:37;99823.34;;;-12.77;70.98
67517;BME280;54359;59.124;37.910;2023-02-23T06:23:05;99832.31;;;-12.86;71.42
67517;BME280;54359;59.124;37.910;2023-02-23T06:25:31;99826.75;;;-12.92;71.13
67517;BME280;54359;59.124;37.910;2023-02-23T06:27:59;99841.00;;;-12.99;70.85
67517;BME280;54359;59.124;37.910;2023-02-23T06:30:24;99833.53;;;-13.07;71.32
67517;BME280;54359;59.124;37.910;2023-02-23T06:32:51;99821.38;;;-13.22;70.59
67517;BME280;54359;59.124;37.910;2023-02-23T06:35:20;99830.28;;;-13.15;71.51
67517;BME280;54359;59.124;37.910;2023-02-23T06:37:48;99821.72;;;-13.19;71.29
67517;BME280;54359;59.124;37.910;2023-02-23T06:40:14;99831.06;;;-13.07;71.89
67517;BME280;54359;59.124;37.910;2023-02-23T06:42:39;99816.97;;;-13.08;70.98
67517;BME280;54359;59.124;37.910;2023-02-23T06:45:06;99829.81;;;-12.95;71.79
67517;BME280;54359;59.124;37.910;2023-02-23T06:47:32;99817.88;;;-12.99;71.54
67517;BME280;54359;59.124;37.910;2023-02-23T06:49:58;99839.06;;;-12.77;71.34
67517;BME280;54359;59.124;37.910;2023-02-23T06:52:25;99825.66;;;-12.79;71.15
67517;BME280;54359;59.124;37.910;2023-02-23T06:54:51;99836.25;;;-12.55;71.53
67517;BME280;54359;59.124;37.910;2023-02-23T06:57:16;99810.56;;;-12.64;71.11
67517;BME280;54359;59.124;37.910;2023-02-23T06:59:42;99826.97;;;-12.40;71.68
67517;BME280;54359;59.124;37.910;2023-02-23T07:02:12;99831.06;;;-12.23;71.77
67517;BME280;54359;59.124;37.910;2023-02-23T07:04:38;99833.72;;;-12.13;71.35
67517;BME280;54359;59.124;37.910;2023-02-23T07:07:05;99836.94;;;-12.05;71.68
67517;BME280;54359;59.124;37.910;2023-02-23T07:09:32;99828.63;;;-11.97;71.90
67517;BME280;54359;59.124;37.910;2023-02-23T07:11:58;99824.97;;;-11.92;71.14
67517;BME280;54359;59.124;37.910;2023-02-23T07:14:28;99832.72;;;-11.98;71.43
67517;BME280;54359;59.124;37.910;2023-02-23T07:16:54;99842.47;;;-12.08;70.32
67517;BME280;54359;59.124;37.910;2023-02-23T07:19:21;99808.75;;;-12.41;70.30
67517;BME280;54359;59.124;37.910;2023-02-23T07:21:49;99829.72;;;-12.37;71.09
67517;BME280;54359;59.124;37.910;2023-02-23T07:24:16;99838.22;;;-12.26;71.50
67517;BME280;54359;59.124;37.910;2023-02-23T07:26:42;99832.69;;;-12.15;71.46
67517;BME280;54359;59.124;37.910;2023-02-23T07:29:11;99810.13;;;-12.09;71.66
67517;BME280;54359;59.124;37.910;2023-02-23T07:31:38;99820.63;;;-11.95;70.84
67517;BME280;54359;59.124;37.910;2023-02-23T07:34:03;99829.94;;;-12.01;70.24
67517;BME280;54359;59.124;37.910;2023-02-23T07:36:30;99828.19;;;-12.02;70.70
67517;BME280;54359;59.124;37.910;2023-02-23T07:38:56;99816.53;;;-12.20;70.81
67517;BME280;54359;59.124;37.910;2023-02-23T07:41:22;99829.34;;;-12.07;71.16
67517;BME280;54359;59.124;37.910;2023-02-23T07:43:48;99826.00;;;-11.99;70.94
67517;BME280;54359;59.124;37.910;2023-02-23T07:46:16;99807.94;;;-11.98;71.28
67517;BME280;54359;59.124;37.910;2023-02-23T07:48:43;99813.88;;;-11.78;71.62
67517;BME280;54359;59.124;37.910;2023-02-23T07:51:14;99810.66;;;-11.86;70.25
67517;BME280;54359;59.124;37.910;2023-02-23T07:53:43;99820.00;;;-11.83;70.51
67517;BME280;54359;59.124;37.910;2023-02-23T07:56:11;99817.69;;;-11.90;70.26
67517;BME280;54359;59.124;37.910;2023-02-23T07:58:40;99809.53;;;-11.98;70.06
67517;BME280;54359;59.124;37.910;2023-02-23T08:01:07;99826.59;;;-11.92;70.62
67517;BME280;54359;59.124;37.910;2023-02-23T08:03:34;99824.38;;;-11.98;70.61
67517;BME280;54359;59.124;37.910;2023-02-23T08:06:02;99797.56;;;-12.11;70.92
67517;BME280;54359;59.124;37.910;2023-02-23T08:08:28;99805.75;;;-11.95;70.83
67517;BME280;54359;59.124;37.910;2023-02-23T08:11:01;99816.50;;;-11.77;70.79
67517;BME280;54359;59.124;37.910;2023-02-23T08:13:28;99797.84;;;-11.73;71.06
67517;BME280;54359;59.124;37.910;2023-02-23T08:15:57;99799.44;;;-11.65;70.09
67517;BME280;54359;59.124;37.910;2023-02-23T08:18:26;99810.78;;;-11.49;71.22
67517;BME280;54359;59.124;37.910;2023-02-23T08:21:03;99796.34;;;-11.36;71.21
67517;BME280;54359;59.124;37.910;2023-02-23T08:23:40;99764.41;;;-11.42;70.74
67517;BME280;54359;59.124;37.910;2023-02-23T08:26:07;99802.78;;;-11.02;70.35
67517;BME280;54359;59.124;37.910;2023-02-23T08:28:39;99797.38;;;-10.89;70.81
67517;BME280;54359;59.124;37.910;2023-02-23T08:31:11;99777.47;;;-10.80;71.00
67517;BME280;54359;59.124;37.910;2023-02-23T08:33:39;99773.19;;;-10.73;70.39
67517;BME280;54359;59.124;37.910;2023-02-23T08:36:07;99776.31;;;-10.56;70.68
67517;BME280;54359;59.124;37.910;2023-02-23T08:38:36;99775.09;;;-10.51;71.05
67517;BME280;54359;59.124;37.910;2023-02-23T08:41:04;99780.00;;;-10.34;70.52
67517;BME280;54359;59.124;37.910;2023-02-23T08:43:31;99745.06;;;-10.35;71.52
67517;BME280;54359;59.124;37.910;2023-02-23T08:45:57;99784.41;;;-10.02;70.88
67517;BME280;54359;59.124;37.910;2023-02-23T08:48:23;99732.19;;;-10.31;70.68
67517;BME280;54359;59.124;37.910;2023-02-23T08:51:05;99733.94;;;-10.20;69.66
67517;BME280;54359;59.124;37.910;2023-02-23T08:53:32;99757.81;;;-10.03;70.65
67517;BME280;54359;59.124;37.910;2023-02-23T08:56:04;99760.28;;;-10.03;71.12
67517;BME280;54359;59.124;37.910;2023-02-23T08:58:46;99736.59;;;-9.89;70.40
67517;BME280;54359;59.124;37.910;2023-02-23T09:01:19;99784.06;;;-9.48;70.35
67517;BME280;54359;59.124;37.910;2023-02-23T09:03:46;99772.47;;;-9.28;70.43
67517;BME280;54359;59.124;37.910;2023-02-23T09:06:19;99774.06;;;-9.00;70.58
67517;BME280;54359;59.124;37.910;2023-02-23T09:08:51;99784.19;;;-8.78;70.71
67517;BME280;54359;59.124;37.910;2023-02-23T09:11:20;99781.31;;;-8.62;70.76
67517;BME280;54359;59.124;37.910;2023-02-23T09:13:47;99778.09;;;-8.30;70.74
67517;BME280;54359;59.124;37.910;2023-02-23T09:16:15;99777.72;;;-8.14;70.43
67517;BME280;54359;59.124;37.910;2023-02-23T09:18:41;99756.34;;;-8.00;71.28
67517;BME280;54359;59.124;37.910;2023-02-23T09:21:14;99770.41;;;-7.80;70.45
67517;BME280;54359;59.124;37.910;2023-02-23T09:23:47;99759.19;;;-7.75;70.13
67517;BME280;54359;59.124;37.910;2023-02-23T09:26:37;99756.31;;;-7.80;70.71
67517;BME280;54359;59.124;37.910;2023-02-23T09:29:10;99754.19;;;-7.75;70.28
67517;BME280;54359;59.124;37.910;2023-02-23T09:31:39;99755.56;;;-7.79;70.04
67517;BME280;54359;59.124;37.910;2023-02-23T09:34:11;99761.81;;;-7.84;70.05
67517;BME280;54359;59.124;37.910;2023-02-23T09:36:38;99746.63;;;-7.87;69.67
67517;BME280;54359;59.124;37.910;2023-02-23T09:39:04;99748.81;;;-7.80;70.03
67517;BME280;54359;59.124;37.910;2023-02-23T09:44:36;99745.91;;;-7.64;69.66
67517;BME280;54359;59.124;37.910;2023-02-23T09:49:44;99738.63;;;-7.83;69.85
67517;BME280;54359;59.124;37.910;2023-02-23T09:52:24;99719.94;;;-7.98;69.36
67517;BME280;54359;59.124;37.910;2023-02-23T09:54:57;99723.41;;;-7.96;69.55
67517;BME280;54359;59.124;37.910;2023-02-23T09:57:36;99727.53;;;-7.97;70.11
67517;BME280;54359;59.124;37.910;2023-02-23T10:00:30;99721.06;;;-7.95;69.22
67517;BME280;54359;59.124;37.910;2023-02-23T10:05:49;99734.00;;;-7.89;69.85
67517;BME280;54359;59.124;37.910;2023-02-23T10:11:10;99742.50;;;-7.97;69.39
67517;BME280;54359;59.124;37.910;2023-02-23T10:14:17;99727.19;;;-8.01;69.72
67517;BME280;54359;59.124;37.910;2023-02-23T10:19:45;99719.72;;;-8.01;69.56
67517;BME280;54359;59.124;37.910;2023-02-23T10:22:18;99713.03;;;-7.80;69.43
67517;BME280;54359;59.124;37.910;2023-02-23T10:24:54;99674.31;;;-7.97;69.95
67517;BME280;54359;59.124;37.910;2023-02-23T10:27:42;99678.03;;;-7.92;70.07
67517;BME280;54359;59.124;37.910;2023-02-23T10:30:20;99683.34;;;-7.77;69.79
67517;BME280;54359;59.124;37.910;2023-02-23T10:36:50;99684.13;;;-7.56;69.12
67517;BME280;54359;59.124;37.910;2023-02-23T10:38:59;99707.22;;;-7.37;70.34
67517;BME280;54359;59.124;37.910;2023-02-23T10:41:33;99712.22;;;-7.37;69.83
67517;BME280;54359;59.124;37.910;2023-02-23T10:44:06;99667.53;;;-7.56;69.00
67517;BME280;54359;59.124;37.910;2023-02-23T10:47:00;99660.03;;;-7.56;69.58
67517;BME280;54359;59.124;37.910;2023-02-23T10:49:49;99710.84;;;-7.33;69.89
67517;BME280;54359;59.124;37.910;2023-02-23T10:52:59;99686.75;;;-7.55;69.86
67517;BME280;54359;59.124;37.910;2023-02-23T10:55:42;99680.31;;;-7.63;69.59
67517;BME280;54359;59.124;37.910;2023-02-23T10:58:23;99668.84;;;-7.49;69.80
67517;BME280;54359;59.124;37.910;2023-02-23T11:05:43;99696.19;;;-5.92;70.40
67517;BME280;54359;59.124;37.910;2023-02-23T11:10:42;99649.25;;;-5.22;69.83
67517;BME280;54359;59.124;37.910;2023-02-23T11:13:26;99644.31;;;-4.70;69.67
67517;BME280;54359;59.124;37.910;2023-02-23T11:15:58;99691.09;;;-4.06;69.09
67517;BME280;54359;59.124;37.910;2023-02-23T11:18:25;99647.75;;;-3.90;69.11
67517;BME280;54359;59.124;37.910;2023-02-23T11:20:51;99641.75;;;-3.78;68.44
67517;BME280;54359;59.124;37.910;2023-02-23T11:23:42;99641.56;;;-3.40;68.30
67517;BME280;54359;59.124;37.910;2023-02-23T11:26:35;99656.81;;;-2.80;69.38
67517;BME280;54359;59.124;37.910;2023-02-23T11:29:13;99665.25;;;-2.35;68.60
67517;BME280;54359;59.124;37.910;2023-02-23T11:31:47;99623.50;;;-2.17;68.52
67517;BME280;54359;59.124;37.910;2023-02-23T11:34:42;99650.00;;;-1.61;68.39
67517;BME280;54359;59.124;37.910;2023-02-23T11:40:17;99655.59;;;-0.86;68.23
67517;BME280;54359;59.124;37.910;2023-02-23T11:43:14;99674.75;;;-0.39;68.13
67517;BME280;54359;59.124;37.910;2023-02-23T11:45:44;99667.47;;;-0.33;67.57
67517;BME280;54359;59.124;37.910;2023-02-23T11:49:08;99625.47;;;-0.31;68.10
67517;BME280;54359;59.124;37.910;2023-02-23T11:51:31;99658.69;;;0.31;67.86
67517;BME280;54359;59.124;37.910;2023-02-23T11:53:58;99639.88;;;0.44;68.01
67517;BME280;54359;59.124;37.910;2023-02-23T11:56:27;99662.25;;;0.73;67.37
67517;BME280;54359;59.124;37.910;2023-02-23T11:59:36;99658.41;;;0.82;67.78
67517;BME280;54359;59.124;37.910;2023-02-23T12:02:26;99656.09;;;1.06;67.12
67517;BME280;54359;59.124;37.910;2023-02-23T12:05:06;99656.69;;;1.19;67.28
67517;BME280;54359;59.124;37.910;2023-02-23T12:07:45;99654.19;;;1.40;67.91
67517;BME280;54359;59.124;37.910;2023-02-23T12:11:09;99620.66;;;1.67;67.35
67517;BME280;54359;59.124;37.910;2023-02-23T12:13:47;99630.84;;;1.90;67.53
67517;BME280;54359;59.124;37.910;2023-02-23T12:16:25;99606.34;;;1.90;67.38
67517;BME280;54359;59.124;37.910;2023-02-23T12:22:14;99630.53;;;2.48;66.29
67517;BME280;54359;59.124;37.910;2023-02-23T12:24:57;99610.19;;;2.24;65.98
67517;BME280;54359;59.124;37.910;2023-02-23T12:30:59;99598.56;;;1.86;66.03
67517;BME280;54359;59.124;37.910;2023-02-23T12:33:40;99621.28;;;1.83;66.08
67517;BME280;54359;59.124;37.910;2023-02-23T12:36:43;99624.00;;;1.66;66.46
67517;BME280;54359;59.124;37.910;2023-02-23T12:39:39;99589.94;;;1.17;66.66
67517;BME280;54359;59.124;37.910;2023-02-23T12:45:08;99603.59;;;1.42;67.59
67517;BME280;54359;59.124;37.910;2023-02-23T12:47:45;99582.84;;;1.51;67.36
67517;BME280;54359;59.124;37.910;2023-02-23T12:50:29;99610.53;;;1.67;66.65
67517;BME280;54359;59.124;37.910;2023-02-23T12:53:08;99615.78;;;1.51;66.58
67517;BME280;54359;59.124;37.910;2023-02-23T12:56:11;99624.78;;;1.23;66.55
67517;BME280;54359;59.124;37.910;2023-02-23T12:59:01;99609.53;;;1.22;66.57
67517;BME280;54359;59.124;37.910;2023-02-23T13:02:03;99572.41;;;1.22;66.78
67517;BME280;54359;59.124;37.910;2023-02-23T13:07:45;99615.16;;;1.56;66.41
67517;BME280;54359;59.124;37.910;2023-02-23T13:10:47;99608.44;;;1.16;65.94
67517;BME280;54359;59.124;37.910;2023-02-23T13:13:55;99612.34;;;0.89;65.86
67517;BME280;54359;59.124;37.910;2023-02-23T13:20:29;99614.13;;;0.52;65.72
67517;BME280;54359;59.124;37.910;2023-02-23T13:23:33;99616.53;;;0.49;65.85
67517;BME280;54359;59.124;37.910;2023-02-23T13:29:46;99610.59;;;0.11;65.17
67517;BME280;54359;59.124;37.910;2023-02-23T13:32:23;99595.31;;;-0.10;64.96
67517;BME280;54359;59.124;37.910;2023-02-23T13:34:59;99600.66;;;-0.22;65.42
67517;BME280;54359;59.124;37.910;2023-02-23T13:41:36;99612.66;;;-0.70;65.12
67517;BME280;54359;59.124;37.910;2023-02-23T13:44:28;99612.72;;;-1.19;64.88
67517;BME280;54359;59.124;37.910;2023-02-23T13:52:43;99612.00;;;-1.97;65.54
67517;BME280;54359;59.124;37.910;2023-02-23T13:58:10;99594.28;;;-2.89;64.70
67517;BME280;54359;59.124;37.910;2023-02-23T14:00:40;99598.16;;;-3.66;64.52
67517;BME280;54359;59.124;37.910;2023-02-23T14:03:16;99589.47;;;-4.66;64.66
67517;BME280;54359;59.124;37.910;2023-02-23T14:05:44;99577.84;;;-5.54;64.54
67517;BME280;54359;59.124;37.910;2023-02-23T14:08:36;99601.81;;;-6.18;65.54
67517;BME280;54359;59.124;37.910;2023-02-23T14:11:04;99612.78;;;-6.63;64.99
67517;BME280;54359;59.124;37.910;2023-02-23T14:14:02;99606.56;;;-7.25;65.57
67517;BME280;54359;59.124;37.910;2023-02-23T14:16:30;99602.81;;;-7.64;66.27
67517;BME280;54359;59.124;37.910;2023-02-23T14:19:35;99619.28;;;-7.89;65.88
67517;BME280;54359;59.124;37.910;2023-02-23T14:22:16;99606.09;;;-8.30;66.25
67517;BME280;54359;59.124;37.910;2023-02-23T14:34:56;99597.50;;;-8.97;66.22
67517;BME280;54359;59.124;37.910;2023-02-23T14:38:00;99554.34;;;-9.38;66.34
67517;BME280;54359;59.124;37.910;2023-02-23T14:40:37;99566.03;;;-9.37;66.94
67517;BME280;54359;59.124;37.910;2023-02-23T14:43:31;99583.19;;;-9.30;66.43
67517;BME280;54359;59.124;37.910;2023-02-23T14:46:01;99568.75;;;-9.44;66.33
67517;BME280;54359;59.124;37.910;2023-02-23T14:48:44;99535.53;;;-9.76;66.08
67517;BME280;54359;59.124;37.910;2023-02-23T14:51:30;99561.91;;;-9.67;67.21
67517;BME280;54359;59.124;37.910;2023-02-23T14:54:21;99506.50;;;-9.96;66.84
67517;BME280;54359;59.124;37.910;2023-02-23T14:56:50;99530.75;;;-9.83;65.80
67517;BME280;54359;59.124;37.910;2023-02-23T14:59:20;99568.00;;;-9.64;66.27
67517;BME280;54359;59.124;37.910;2023-02-23T15:01:50;99546.59;;;-9.82;67.09
67517;BME280;54359;59.124;37.910;2023-02-23T15:04:28;99568.88;;;-9.63;67.12
67517;BME280;54359;59.124;37.910;2023-02-23T15:06:58;99568.97;;;-9.72;66.76
67517;BME280;54359;59.124;37.910;2023-02-23T15:09:35;99584.28;;;-9.57;67.54
67517;BME280;54359;59.124;37.910;2023-02-23T15:12:12;99576.56;;;-9.60;66.90
67517;BME280;54359;59.124;37.910;2023-02-23T15:14:40;99541.72;;;-9.81;67.63
67517;BME280;54359;59.124;37.910;2023-02-23T15:17:17;99563.41;;;-9.59;67.23